Time;durP1;ratioP1;P1;durP2;ratioP2;P2;SDS_P1;SDS_P2;PMS_P1;PMS_P2;Temp;Humidity;BMP_temperature;BMP_pressure;BME280_temperature;BME280_humidity;BME280_pressure;Samples;Min_cycle;Max_cycle;Signal;HPM_P1;HPM_P2
2021/10/06 00:01:40;;;;;;;1.80;1.02;;;11.70;99.90;;;;;;4953352;29;20075;-74
2021/10/06 00:04:06;;;;;;;1.13;0.95;;;11.70;99.90;;;;;;4953413;29;20032;-74
2021/10/06 00:06:33;;;;;;;3.38;1.23;;;11.70;99.90;;;;;;4953360;29;20031;-74
2021/10/06 00:08:58;;;;;;;2.08;1.15;;;11.60;99.90;;;;;;4953497;29;20031;-74
2021/10/06 00:11:24;;;;;;;1.38;1.15;;;11.60;99.90;;;;;;4953437;29;20129;-74
2021/10/06 00:13:51;;;;;;;2.22;1.10;;;11.60;99.90;;;;;;4953299;29;20035;-74
2021/10/06 00:16:17;;;;;;;4.25;1.13;;;11.50;99.90;;;;;;4953213;29;20046;-74
2021/10/06 00:18:43;;;;;;;2.67;1.40;;;11.50;99.90;;;;;;4953186;29;20031;-75
2021/10/06 00:21:09;;;;;;;2.17;1.10;;;11.40;99.90;;;;;;4953190;29;20031;-74
2021/10/06 00:23:34;;;;;;;2.38;1.30;;;11.40;99.90;;;;;;4952938;29;20093;-76
2021/10/06 00:26:01;;;;;;;1.95;1.02;;;11.40;99.90;;;;;;4953342;29;20493;-73
2021/10/06 00:28:28;;;;;;;3.30;1.10;;;11.40;99.90;;;;;;4953238;29;20027;-74
2021/10/06 00:30:54;;;;;;;5.72;1.38;;;11.40;99.90;;;;;;4952784;29;20035;-75
2021/10/06 00:33:20;;;;;;;2.20;1.15;;;11.30;99.90;;;;;;4953143;29;20114;-74
2021/10/06 00:35:46;;;;;;;2.13;1.30;;;11.30;99.90;;;;;;4952929;29;20027;-75
2021/10/06 00:38:12;;;;;;;3.45;1.05;;;11.30;99.90;;;;;;4952963;29;20523;-74
2021/10/06 00:40:38;;;;;;;4.38;1.40;;;11.20;99.90;;;;;;4952878;29;20042;-74
2021/10/06 00:43:03;;;;;;;2.15;1.20;;;11.20;99.90;;;;;;4952934;29;20035;-74
2021/10/06 00:45:29;;;;;;;5.80;1.20;;;11.20;99.90;;;;;;4935626;29;20066;-74
2021/10/06 00:47:55;;;;;;;0.98;0.88;;;11.20;99.90;;;;;;4952511;28;20027;-75
2021/10/06 00:50:20;;;;;;;3.13;1.20;;;11.20;99.90;;;;;;4952716;29;20110;-75
2021/10/06 00:52:47;;;;;;;2.72;1.20;;;11.20;99.90;;;;;;4935436;29;20425;-75
2021/10/06 00:55:13;;;;;;;3.67;1.05;;;11.20;99.90;;;;;;4952618;29;20426;-75
2021/10/06 00:57:39;;;;;;;1.58;1.20;;;11.20;99.90;;;;;;4952587;29;20038;-75
2021/10/06 01:00:06;;;;;;;3.72;1.10;;;11.20;99.90;;;;;;4952727;29;20031;-75
2021/10/06 01:02:31;;;;;;;4.47;1.10;;;11.20;99.90;;;;;;4952646;29;20079;-75
2021/10/06 01:04:57;;;;;;;2.55;1.10;;;11.20;99.90;;;;;;4952510;29;20078;-75
2021/10/06 01:07:22;;;;;;;1.63;1.10;;;11.20;99.90;;;;;;4952605;29;20031;-75
2021/10/06 01:09:48;;;;;;;4.03;1.50;;;11.20;99.90;;;;;;4952292;29;20034;-75
2021/10/06 01:12:14;;;;;;;3.88;1.10;;;11.20;99.90;;;;;;4952323;29;20036;-75
2021/10/06 01:14:40;;;;;;;2.67;1.20;;;11.10;99.90;;;;;;4952305;29;20039;-75
2021/10/06 01:17:06;;;;;;;2.78;1.10;;;11.10;99.90;;;;;;4952455;29;20098;-75
2021/10/06 01:19:31;;;;;;;3.33;0.98;;;11.10;99.90;;;;;;4952127;29;20126;-75
2021/10/06 01:21:58;;;;;;;3.60;1.10;;;11.10;99.90;;;;;;4952098;29;20445;-75
2021/10/06 01:24:24;;;;;;;3.67;1.30;;;11.00;99.90;;;;;;4934979;29;20220;-74
2021/10/06 01:26:50;;;;;;;2.40;1.20;;;11.00;99.90;;;;;;4952198;29;20031;-75
2021/10/06 01:29:16;;;;;;;1.95;1.02;;;11.00;99.90;;;;;;4952019;29;20019;-74
2021/10/06 01:31:48;;;;;;;3.80;1.10;;;11.00;99.90;;;;;;4934948;29;20047;-74
2021/10/06 01:34:17;;;;;;;2.13;1.00;;;11.00;99.90;;;;;;4951846;29;20082;-74
2021/10/06 01:36:45;;;;;;;2.80;1.20;;;11.00;99.90;;;;;;4952615;29;20027;-74
2021/10/06 01:39:10;;;;;;;3.38;1.30;;;11.00;99.90;;;;;;4952572;29;20093;-74
2021/10/06 01:41:37;;;;;;;1.90;1.30;;;10.90;99.90;;;;;;4951064;29;20047;-74
2021/10/06 01:44:03;;;;;;;3.83;1.23;;;10.90;99.90;;;;;;4952118;29;20036;-74
2021/10/06 01:46:29;;;;;;;3.20;0.98;;;10.90;99.90;;;;;;4952047;29;20031;-73
2021/10/06 01:48:55;;;;;;;2.03;1.13;;;10.80;99.90;;;;;;4952084;29;20027;-74
2021/10/06 01:51:21;;;;;;;2.28;1.10;;;10.80;99.90;;;;;;4951960;29;20361;-75
2021/10/06 01:53:47;;;;;;;1.67;0.90;;;10.80;99.90;;;;;;4952096;29;20441;-74
2021/10/06 01:56:12;;;;;;;1.67;1.10;;;10.80;99.90;;;;;;4951760;29;20082;-74
2021/10/06 01:58:38;;;;;;;2.60;0.98;;;10.80;99.90;;;;;;4952941;28;20404;-75
2021/10/06 02:01:04;;;;;;;4.75;1.02;;;10.80;99.90;;;;;;4955807;29;20097;-74
2021/10/06 02:03:30;;;;;;;3.83;1.63;;;10.70;99.90;;;;;;4955737;29;20102;-74
2021/10/06 02:05:55;;;;;;;4.60;1.00;;;10.70;99.90;;;;;;4955879;29;20469;-74
2021/10/06 02:08:21;;;;;;;2.05;1.08;;;10.70;99.90;;;;;;4955572;29;20032;-75
2021/10/06 02:10:47;;;;;;;5.57;1.23;;;10.70;99.90;;;;;;4955851;29;20043;-74
2021/10/06 02:13:13;;;;;;;3.85;1.33;;;10.70;99.90;;;;;;4955698;29;20760;-75
2021/10/06 02:15:39;;;;;;;1.52;0.95;;;10.70;99.90;;;;;;4955766;29;20031;-75
2021/10/06 02:18:05;;;;;;;2.20;1.10;;;10.70;99.90;;;;;;4955311;29;20035;-74
2021/10/06 02:20:31;;;;;;;2.92;0.90;;;10.80;99.90;;;;;;4955640;29;20033;-75
2021/10/06 02:22:57;;;;;;;3.88;0.95;;;10.80;99.90;;;;;;4954945;29;20031;-75
2021/10/06 02:25:23;;;;;;;2.17;1.10;;;10.70;99.90;;;;;;4952258;29;20023;-75
2021/10/06 02:27:48;;;;;;;2.08;0.82;;;10.70;99.90;;;;;;4955357;29;20023;-74
2021/10/06 02:30:16;;;;;;;2.28;0.90;;;10.60;99.90;;;;;;4955232;29;20037;-74
2021/10/06 02:32:42;;;;;;;3.92;1.10;;;10.60;99.90;;;;;;4937841;29;20165;-74
2021/10/06 02:35:08;;;;;;;4.07;1.20;;;10.70;99.90;;;;;;4937856;29;20035;-74
2021/10/06 02:37:34;;;;;;;5.43;1.10;;;10.60;99.90;;;;;;4937954;29;20469;-74
2021/10/06 02:40:00;;;;;;;3.50;0.93;;;10.60;99.90;;;;;;4955151;29;20042;-74
2021/10/06 02:42:25;;;;;;;2.60;0.95;;;10.70;99.90;;;;;;4954904;29;20117;-75
2021/10/06 02:44:51;;;;;;;4.53;1.48;;;10.60;99.90;;;;;;4955038;29;20027;-74
2021/10/06 02:47:16;;;;;;;1.25;0.98;;;10.60;99.90;;;;;;4954966;29;20106;-74
2021/10/06 02:49:42;;;;;;;3.20;1.10;;;10.70;99.90;;;;;;4954917;29;20102;-74
2021/10/06 02:52:08;;;;;;;2.00;0.90;;;10.60;99.90;;;;;;4954772;29;20027;-75
2021/10/06 02:54:33;;;;;;;5.30;1.40;;;10.60;99.90;;;;;;4954928;29;20035;-74
2021/10/06 02:57:04;;;;;;;2.78;0.93;;;10.60;99.90;;;;;;4954852;29;20114;-74
2021/10/06 02:59:33;;;;;;;5.05;1.42;;;10.50;99.90;;;;;;4954564;29;20027;-75
2021/10/06 03:01:59;;;;;;;3.15;1.10;;;10.50;99.90;;;;;;4954841;29;20035;-74
2021/10/06 03:04:24;;;;;;;5.35;1.08;;;10.50;99.90;;;;;;4940915;29;20122;-75
2021/10/06 03:06:50;;;;;;;3.85;1.30;;;10.50;99.90;;;;;;4954719;29;20036;-74
2021/10/06 03:09:16;;;;;;;4.78;1.80;;;10.50;99.90;;;;;;4954101;28;20036;-73
2021/10/06 03:11:42;;;;;;;4.35;1.10;;;10.50;99.90;;;;;;4954629;29;20034;-73
2021/10/06 03:14:08;;;;;;;3.17;1.15;;;10.50;99.90;;;;;;4954536;29;20043;-74
2021/10/06 03:16:34;;;;;;;3.03;1.00;;;10.40;99.90;;;;;;4937053;29;20035;-74
2021/10/06 03:18:59;;;;;;;4.13;1.08;;;10.40;99.90;;;;;;4954458;29;20039;-74
2021/10/06 03:21:25;;;;;;;5.45;1.52;;;10.40;99.90;;;;;;4955744;29;20038;-71
2021/10/06 03:23:51;;;;;;;4.00;1.33;;;10.40;99.90;;;;;;4957193;28;20065;-71
2021/10/06 03:26:17;;;;;;;3.38;1.23;;;10.40;99.90;;;;;;4957157;29;20070;-71
2021/10/06 03:28:42;;;;;;;4.15;1.20;;;10.30;99.90;;;;;;4946363;28;20116;-71
2021/10/06 03:31:08;;;;;;;3.63;1.48;;;10.30;99.90;;;;;;4964201;28;20054;-71
2021/10/06 03:33:34;;;;;;;3.22;1.30;;;10.30;99.90;;;;;;4957021;29;20082;-71
2021/10/06 03:35:59;;;;;;;2.60;1.00;;;10.30;99.90;;;;;;4957078;29;20050;-71
2021/10/06 03:38:25;;;;;;;3.53;1.23;;;10.30;99.90;;;;;;4956998;29;20032;-71
2021/10/06 03:40:50;;;;;;;2.75;1.27;;;10.30;99.90;;;;;;4957267;29;20086;-71
2021/10/06 03:43:16;;;;;;;6.70;1.30;;;10.30;99.90;;;;;;4956796;29;20487;-71
2021/10/06 03:45:42;;;;;;;1.77;0.95;;;10.30;99.90;;;;;;4955335;29;20031;-74
2021/10/06 03:48:07;;;;;;;4.38;1.67;;;10.30;99.90;;;;;;4954056;29;20036;-75
2021/10/06 03:50:33;;;;;;;3.83;1.00;;;10.30;99.90;;;;;;4953161;29;20357;-74
2021/10/06 03:53:00;;;;;;;2.58;1.10;;;10.20;99.90;;;;;;4944816;29;20042;-74
2021/10/06 03:55:25;;;;;;;4.57;1.23;;;10.20;99.90;;;;;;4949317;29;20039;-74
2021/10/06 03:57:51;;;;;;;5.60;1.08;;;10.20;99.90;;;;;;4953915;29;20039;-74
2021/10/06 04:00:17;;;;;;;5.72;1.45;;;10.20;99.90;;;;;;4953909;29;20119;-74
2021/10/06 04:02:42;;;;;;;4.25;1.30;;;10.20;99.90;;;;;;4953461;29;20035;-74
2021/10/06 04:05:09;;;;;;;3.45;1.30;;;10.20;99.90;;;;;;4953784;29;20036;-74
2021/10/06 04:07:34;;;;;;;3.00;1.17;;;10.20;99.90;;;;;;4953194;29;20035;-74
2021/10/06 04:10:00;;;;;;;6.05;1.40;;;10.20;99.90;;;;;;4953409;29;20099;-74
2021/10/06 04:12:26;;;;;;;6.95;1.30;;;10.20;99.90;;;;;;4953242;29;20055;-74
2021/10/06 04:14:51;;;;;;;3.20;1.30;;;10.10;99.90;;;;;;4953566;29;20051;-74
2021/10/06 04:17:17;;;;;;;4.10;1.45;;;10.10;99.90;;;;;;4953248;29;20035;-74
2021/10/06 04:19:42;;;;;;;2.97;1.20;;;10.10;99.90;;;;;;4954519;29;20047;-71
2021/10/06 04:22:08;;;;;;;6.07;1.20;;;10.10;99.90;;;;;;4955980;28;20038;-70
2021/10/06 04:24:34;;;;;;;1.90;1.10;;;10.00;99.90;;;;;;4956272;29;20115;-71
2021/10/06 04:26:59;;;;;;;5.03;1.00;;;10.00;99.90;;;;;;4965214;28;20085;-71
2021/10/06 04:29:25;;;;;;;3.10;1.20;;;10.00;99.90;;;;;;4975585;28;20027;-71
2021/10/06 04:31:50;;;;;;;3.25;1.00;;;10.00;99.90;;;;;;4972722;28;20043;-71
2021/10/06 04:34:16;;;;;;;4.97;0.93;;;10.00;99.90;;;;;;4965162;28;20050;-71
2021/10/06 04:36:42;;;;;;;3.00;0.95;;;10.00;99.90;;;;;;4944014;28;20093;-71
2021/10/06 04:39:08;;;;;;;5.88;1.23;;;10.00;99.90;;;;;;4957690;28;20058;-71
2021/10/06 04:41:33;;;;;;;7.80;2.00;;;10.00;99.90;;;;;;4962114;28;20078;-71
2021/10/06 04:44:01;;;;;;;3.47;1.38;;;10.00;99.90;;;;;;4955959;29;20039;-71
2021/10/06 04:46:27;;;;;;;7.65;2.20;;;9.90;99.90;;;;;;4967380;28;20034;-71
2021/10/06 04:48:53;;;;;;;4.05;1.33;;;9.90;99.90;;;;;;4940304;29;20023;-71
2021/10/06 04:51:18;;;;;;;4.13;1.27;;;9.90;99.90;;;;;;4956089;29;20126;-71
2021/10/06 04:53:44;;;;;;;4.15;1.42;;;9.90;99.90;;;;;;4955400;29;20035;-70
2021/10/06 04:56:09;;;;;;;6.05;1.45;;;10.00;99.90;;;;;;4945727;28;20043;-71
2021/10/06 04:58:35;;;;;;;3.92;1.73;;;10.00;99.90;;;;;;4958160;28;20409;-73
2021/10/06 05:01:00;;;;;;;4.68;1.70;;;9.90;99.90;;;;;;4954445;29;20086;-74
2021/10/06 05:03:26;;;;;;;3.72;1.60;;;9.90;99.90;;;;;;4954691;29;20035;-74
2021/10/06 05:05:51;;;;;;;4.78;1.27;;;9.90;99.90;;;;;;4948268;29;20027;-74
2021/10/06 05:08:17;;;;;;;4.53;1.80;;;9.90;99.90;;;;;;4954579;29;20329;-74
2021/10/06 05:10:42;;;;;;;7.03;1.30;;;9.90;99.90;;;;;;4954355;29;20031;-74
2021/10/06 05:13:08;;;;;;;4.10;1.67;;;9.90;99.90;;;;;;4954716;29;20047;-74
2021/10/06 05:15:33;;;;;;;4.30;1.40;;;9.90;99.90;;;;;;4954303;28;20425;-73
2021/10/06 05:17:59;;;;;;;4.60;1.65;;;9.90;99.90;;;;;;4954498;29;20031;-74
2021/10/06 05:20:25;;;;;;;5.57;1.75;;;10.00;99.90;;;;;;4954342;29;20090;-73
2021/10/06 05:22:50;;;;;;;8.05;2.20;;;9.90;99.90;;;;;;4953593;28;20365;-73
2021/10/06 05:25:16;;;;;;;6.30;1.40;;;9.90;99.90;;;;;;4954162;29;20023;-74
2021/10/06 05:27:41;;;;;;;5.07;1.23;;;9.90;99.90;;;;;;4954110;29;20370;-74
2021/10/06 05:30:08;;;;;;;3.17;1.40;;;9.90;99.90;;;;;;4954107;29;20027;-74
2021/10/06 05:32:35;;;;;;;4.53;1.40;;;9.90;99.90;;;;;;4953480;29;20485;-74
2021/10/06 05:35:01;;;;;;;7.03;1.55;;;9.90;99.90;;;;;;4952936;29;20143;-74
2021/10/06 05:37:27;;;;;;;6.07;1.40;;;9.90;99.90;;;;;;4953642;29;20087;-74
2021/10/06 05:39:52;;;;;;;3.90;1.50;;;9.90;99.90;;;;;;4952769;28;20023;-73
2021/10/06 05:42:18;;;;;;;2.95;1.17;;;9.90;99.90;;;;;;4953468;28;20035;-74
2021/10/06 05:44:45;;;;;;;1.85;1.20;;;9.90;99.90;;;;;;4958750;28;20026;-73
2021/10/06 05:47:10;;;;;;;3.70;1.27;;;9.90;99.90;;;;;;4960699;28;20035;-74
2021/10/06 05:49:36;;;;;;;6.00;1.10;;;9.90;99.90;;;;;;4945693;29;20029;-73
2021/10/06 05:52:01;;;;;;;5.30;1.25;;;10.00;99.90;;;;;;4953475;28;20476;-73
2021/10/06 05:54:27;;;;;;;4.63;1.13;;;9.90;99.90;;;;;;4953399;28;20024;-74
2021/10/06 05:56:52;;;;;;;3.25;1.00;;;9.90;99.90;;;;;;4953688;29;20023;-73
2021/10/06 05:59:18;;;;;;;8.93;2.00;;;9.90;99.90;;;;;;4953859;29;20023;-73
2021/10/06 06:01:44;;;;;;;6.50;1.70;;;9.90;99.90;;;;;;4953353;29;20031;-72
2021/10/06 06:04:09;;;;;;;4.93;1.35;;;10.00;99.90;;;;;;4951946;28;20488;-73
2021/10/06 06:06:35;;;;;;;3.70;1.10;;;10.00;99.90;;;;;;4952673;29;20032;-73
2021/10/06 06:09:00;;;;;;;6.10;1.35;;;10.00;99.90;;;;;;4950001;28;20543;-74
2021/10/06 06:11:26;;;;;;;4.75;1.20;;;10.00;99.90;;;;;;4951052;29;20031;-71
2021/10/06 06:13:53;;;;;;;4.17;1.50;;;9.90;99.90;;;;;;4953227;29;20475;-73
2021/10/06 06:16:18;;;;;;;3.67;1.00;;;9.90;99.90;;;;;;4953006;29;20706;-73
2021/10/06 06:18:44;;;;;;;2.92;1.00;;;9.90;99.90;;;;;;4950686;28;20031;-73
2021/10/06 06:21:10;;;;;;;3.55;0.95;;;9.90;99.90;;;;;;4948575;29;20027;-73
2021/10/06 06:23:36;;;;;;;3.75;1.25;;;9.90;99.90;;;;;;4947261;29;20063;-73
2021/10/06 06:26:02;;;;;;;3.28;1.05;;;9.90;99.90;;;;;;4946760;29;20109;-73
2021/10/06 06:28:28;;;;;;;1.70;1.00;;;9.90;99.90;;;;;;4951271;29;20110;-70
2021/10/06 06:30:54;;;;;;;4.53;1.25;;;9.90;99.90;;;;;;4954198;29;20110;-70
2021/10/06 06:33:19;;;;;;;4.22;1.25;;;9.90;99.90;;;;;;4952769;29;20047;-73
2021/10/06 06:35:45;;;;;;;3.55;1.10;;;9.90;99.90;;;;;;4950271;29;20035;-73
2021/10/06 06:38:11;;;;;;;2.63;0.90;;;9.90;99.90;;;;;;4950026;29;20066;-73
2021/10/06 06:40:40;;;;;;;3.88;1.20;;;9.90;99.90;;;;;;4936611;29;20035;-73
2021/10/06 06:43:07;;;;;;;1.88;0.90;;;9.90;99.90;;;;;;4949441;29;20035;-73
2021/10/06 06:45:33;;;;;;;3.33;1.13;;;10.00;99.90;;;;;;4939029;29;20015;-73
2021/10/06 06:47:58;;;;;;;2.43;1.10;;;10.00;99.90;;;;;;4955032;29;20030;-73
2021/10/06 06:50:24;;;;;;;4.28;1.30;;;10.10;99.90;;;;;;4954613;29;20024;-73
2021/10/06 06:52:49;;;;;;;3.25;1.10;;;10.10;99.90;;;;;;4954479;29;20392;-74
2021/10/06 06:55:15;;;;;;;3.40;1.00;;;10.10;99.90;;;;;;4954263;28;20032;-74
2021/10/06 06:57:40;;;;;;;5.35;1.70;;;10.10;99.90;;;;;;4951906;29;20031;-74
2021/10/06 07:00:06;;;;;;;2.90;1.23;;;10.10;99.90;;;;;;4946962;28;20054;-73
2021/10/06 07:02:32;;;;;;;4.43;1.50;;;10.10;99.90;;;;;;4942781;29;20028;-73
2021/10/06 07:04:57;;;;;;;3.63;1.50;;;10.00;99.90;;;;;;4933128;28;20392;-73
2021/10/06 07:07:23;;;;;;;3.78;1.10;;;10.00;99.90;;;;;;4935424;29;20034;-73
2021/10/06 07:09:49;;;;;;;3.80;1.35;;;10.00;99.90;;;;;;4934014;29;21718;-74
2021/10/06 07:12:16;;;;;;;3.20;1.30;;;10.00;99.90;;;;;;4933241;29;20024;-74
2021/10/06 07:14:42;;;;;;;2.65;1.00;;;10.00;99.90;;;;;;4950436;29;20380;-74
2021/10/06 07:17:08;;;;;;;6.05;1.38;;;10.00;99.90;;;;;;4950500;29;20038;-74
2021/10/06 07:19:34;;;;;;;4.85;1.63;;;10.00;99.90;;;;;;4950230;28;20544;-73
2021/10/06 07:21:59;;;;;;;4.57;1.40;;;10.00;99.90;;;;;;4952468;29;20174;-73
2021/10/06 07:24:25;;;;;;;4.88;1.33;;;10.00;99.90;;;;;;4969604;28;20109;-73
2021/10/06 07:26:51;;;;;;;5.68;1.35;;;10.00;99.90;;;;;;4955971;29;20027;-73
2021/10/06 07:29:16;;;;;;;3.13;1.17;;;10.00;99.90;;;;;;4945447;29;20027;-73
2021/10/06 07:31:42;;;;;;;3.53;1.30;;;10.10;99.90;;;;;;4933686;29;20048;-74
2021/10/06 07:34:08;;;;;;;4.47;1.67;;;10.10;99.90;;;;;;4948785;28;20034;-73
2021/10/06 07:36:34;;;;;;;4.13;1.55;;;10.10;99.90;;;;;;4955990;29;20083;-74
2021/10/06 07:38:59;;;;;;;3.78;1.45;;;10.10;99.90;;;;;;4953751;28;20027;-74
2021/10/06 07:41:26;;;;;;;5.78;1.30;;;10.20;99.90;;;;;;4947785;28;20027;-74
2021/10/06 07:43:51;;;;;;;3.83;1.48;;;10.30;99.90;;;;;;4954567;28;20185;-73
2021/10/06 07:46:17;;;;;;;3.88;1.45;;;10.30;99.90;;;;;;4956009;29;20469;-74
2021/10/06 07:48:43;;;;;;;8.85;2.17;;;10.40;99.90;;;;;;4956124;29;20023;-70
2021/10/06 07:51:08;;;;;;;6.57;1.70;;;10.40;99.90;;;;;;4964261;28;20062;-70
2021/10/06 07:53:34;;;;;;;10.60;1.77;;;10.50;99.90;;;;;;4952187;28;20090;-73
2021/10/06 07:56:00;;;;;;;7.22;1.73;;;10.60;99.90;;;;;;4941121;28;20035;-74
2021/10/06 07:58:26;;;;;;;5.53;1.83;;;10.70;99.90;;;;;;4948593;29;20484;-74
2021/10/06 08:00:51;;;;;;;4.35;1.70;;;10.70;99.90;;;;;;4947895;29;20019;-73
2021/10/06 08:03:17;;;;;;;3.45;1.30;;;10.80;99.90;;;;;;4956225;29;20197;-73
2021/10/06 08:05:44;;;;;;;7.03;1.95;;;10.90;99.90;;;;;;4956507;29;20026;-73
2021/10/06 08:08:10;;;;;;;3.45;1.20;;;10.90;99.90;;;;;;4956430;29;20090;-73
2021/10/06 08:10:35;;;;;;;4.15;1.17;;;11.00;99.90;;;;;;4956434;29;20024;-73
2021/10/06 08:13:03;;;;;;;3.35;1.27;;;11.10;99.90;;;;;;4956015;29;20028;-73
2021/10/06 08:15:29;;;;;;;6.68;1.25;;;11.20;99.90;;;;;;4956184;29;20547;-74
2021/10/06 08:17:55;;;;;;;2.97;1.00;;;11.30;99.90;;;;;;4956019;29;20031;-74
2021/10/06 08:20:21;;;;;;;5.93;1.40;;;11.40;99.90;;;;;;4956041;29;20106;-73
2021/10/06 08:22:46;;;;;;;5.95;1.88;;;11.50;99.90;;;;;;4955767;29;20034;-73
2021/10/06 08:25:12;;;;;;;5.82;1.60;;;11.50;99.90;;;;;;4938970;29;20070;-74
2021/10/06 08:27:38;;;;;;;6.25;1.40;;;11.60;99.90;;;;;;4955961;29;20023;-72
2021/10/06 08:30:04;;;;;;;4.72;1.38;;;11.60;99.90;;;;;;4956013;29;20027;-72
2021/10/06 08:32:29;;;;;;;3.80;1.38;;;11.80;99.90;;;;;;4955745;29;20051;-72
2021/10/06 08:34:55;;;;;;;5.80;1.25;;;11.90;99.90;;;;;;4955792;29;20489;-71
2021/10/06 08:37:21;;;;;;;3.75;1.27;;;12.00;99.90;;;;;;4955869;29;20033;-72
2021/10/06 08:39:47;;;;;;;4.15;1.00;;;12.00;99.90;;;;;;4956072;29;20456;-72
2021/10/06 08:42:13;;;;;;;2.30;1.20;;;12.10;99.90;;;;;;4955500;29;20483;-72
2021/10/06 08:44:41;;;;;;;2.50;1.10;;;12.10;99.90;;;;;;4955529;29;20086;-72
2021/10/06 08:47:07;;;;;;;5.57;1.33;;;12.20;99.90;;;;;;4955887;29;20031;-72
2021/10/06 08:49:33;;;;;;;7.15;1.35;;;12.30;99.90;;;;;;4955464;29;20023;-72
2021/10/06 08:51:59;;;;;;;8.07;1.30;;;12.50;99.90;;;;;;4955504;29;20055;-73
2021/10/06 08:54:25;;;;;;;2.42;1.02;;;12.60;99.90;;;;;;4938372;29;20069;-72
2021/10/06 08:56:51;;;;;;;1.73;0.98;;;12.60;99.90;;;;;;4955772;29;20027;-72
2021/10/06 08:59:17;;;;;;;4.90;2.17;;;12.70;99.90;;;;;;4955363;29;20103;-72
2021/10/06 09:01:44;;;;;;;2.72;0.90;;;12.50;99.90;;;;;;4955434;29;20105;-72
2021/10/06 09:04:10;;;;;;;5.50;1.40;;;12.60;99.90;;;;;;4955211;29;20042;-72
2021/10/06 09:06:38;;;;;;;4.47;1.33;;;12.60;99.90;;;;;;4938232;29;20028;-72
2021/10/06 09:09:24;;;;;;;5.32;1.38;;;12.60;99.90;;;;;;4955269;28;20023;-72
2021/10/06 09:11:53;;;;;;;6.10;1.40;;;12.70;99.90;;;;;;4938171;29;20035;-72
2021/10/06 09:14:20;;;;;;;2.40;1.15;;;12.70;99.90;;;;;;4955676;29;20051;-72
2021/10/06 09:17:02;;;;;;;7.70;1.38;;;12.80;99.90;;;;;;4955202;29;20027;-72
2021/10/06 09:20:09;;;;;;;4.78;1.60;;;12.90;99.90;;;;;;4968940;28;20329;-72
2021/10/06 09:22:34;;;;;;;4.50;1.23;;;12.80;99.90;;;;;;4900289;29;20029;-72
2021/10/06 09:25:05;;;;;;;3.78;1.23;;;12.90;99.90;;;;;;4896303;29;20047;-72
2021/10/06 09:27:36;;;;;;;2.78;1.00;;;13.00;99.90;;;;;;4926639;29;20039;-72
2021/10/06 09:30:08;;;;;;;3.25;0.90;;;13.00;99.90;;;;;;4955253;29;20026;-72
2021/10/06 09:32:42;;;;;;;2.92;1.08;;;13.00;99.90;;;;;;4934577;29;20074;-72
2021/10/06 09:35:19;;;;;;;4.13;1.10;;;13.10;99.90;;;;;;4936015;29;20043;-72
2021/10/06 09:37:51;;;;;;;2.30;1.00;;;13.10;99.90;;;;;;4935959;29;20032;-72
2021/10/06 09:40:20;;;;;;;4.13;1.10;;;13.10;99.90;;;;;;4936012;29;20071;-72
2021/10/06 09:42:49;;;;;;;4.88;1.10;;;13.00;99.90;;;;;;4935856;29;20039;-73
2021/10/06 09:45:22;;;;;;;4.18;1.30;;;13.10;99.90;;;;;;4937647;29;20020;-73
2021/10/06 09:48:10;;;;;;;3.95;1.33;;;13.10;99.90;;;;;;4954816;29;20020;-73
2021/10/06 09:50:40;;;;;;;6.07;1.70;;;13.20;99.90;;;;;;4951054;29;20131;-73
2021/10/06 09:53:08;;;;;;;2.70;0.98;;;13.40;99.90;;;;;;4935533;29;20028;-73
2021/10/06 09:55:35;;;;;;;2.63;1.27;;;13.40;99.90;;;;;;4935890;29;20034;-73
2021/10/06 09:58:01;;;;;;;5.97;1.25;;;13.30;99.90;;;;;;4935562;29;20028;-73
2021/10/06 10:00:27;;;;;;;3.88;1.50;;;13.30;99.90;;;;;;4935624;29;20027;-73
2021/10/06 10:02:54;;;;;;;3.72;1.00;;;13.20;99.90;;;;;;4935563;29;20039;-73
2021/10/06 10:05:20;;;;;;;3.10;1.00;;;13.30;99.90;;;;;;4936032;29;20118;-73
2021/10/06 10:07:45;;;;;;;4.32;1.20;;;13.40;99.90;;;;;;4935639;29;20155;-73
2021/10/06 10:10:12;;;;;;;3.88;0.98;;;13.40;99.90;;;;;;4935853;29;20032;-74
2021/10/06 10:12:38;;;;;;;4.78;1.00;;;13.40;99.90;;;;;;4935896;29;20106;-73
2021/10/06 10:15:05;;;;;;;4.22;0.90;;;13.40;99.90;;;;;;4935379;29;20119;-73
2021/10/06 10:17:30;;;;;;;4.55;1.20;;;13.40;99.90;;;;;;4935359;29;20581;-73
2021/10/06 10:20:08;;;;;;;4.22;0.90;;;13.40;99.90;;;;;;4933782;29;20139;-75
2021/10/06 10:22:40;;;;;;;3.38;1.20;;;13.50;99.90;;;;;;4936973;29;20385;-72
2021/10/06 10:25:21;;;;;;;6.13;1.52;;;13.50;99.90;;;;;;4938639;29;20028;-75
2021/10/06 10:28:09;;;;;;;4.38;1.30;;;13.70;99.90;;;;;;4937210;29;20334;-72
2021/10/06 10:30:37;;;;;;;9.55;1.70;;;13.70;99.90;;;;;;4924669;28;20036;-73
2021/10/06 10:33:05;;;;;;;4.35;1.00;;;13.60;99.90;;;;;;4944429;28;20418;-73
2021/10/06 10:35:49;;;;;;;4.03;1.17;;;13.70;99.90;;;;;;4977017;28;20031;-74
2021/10/06 10:38:17;;;;;;;4.40;1.00;;;14.00;99.90;;;;;;4977718;28;20089;-73
2021/10/06 10:40:48;;;;;;;3.90;1.17;;;14.20;99.90;;;;;;4971433;28;20031;-73
2021/10/06 10:43:23;;;;;;;4.90;1.00;;;14.50;99.90;;;;;;4958229;29;20019;-73
2021/10/06 10:46:00;;;;;;;4.43;1.40;;;15.00;99.90;;;;;;4957794;29;20052;-74
2021/10/06 10:48:31;;;;;;;2.50;1.13;;;15.50;99.90;;;;;;4957927;29;20027;-74
2021/10/06 10:50:56;;;;;;;5.38;1.02;;;15.90;99.90;;;;;;4958036;29;20115;-74
2021/10/06 10:53:51;;;;;;;3.38;0.95;;;16.00;99.90;;;;;;4958146;29;20102;-74
2021/10/06 10:56:25;;;;;;;4.22;1.23;;;16.20;99.90;;;;;;4957903;29;20050;-74
2021/10/06 10:59:14;;;;;;;4.13;1.30;;;16.00;99.90;;;;;;4953749;29;20031;-75
2021/10/06 11:01:46;;;;;;;4.22;1.20;;;15.60;99.90;;;;;;4950920;29;20045;-75
2021/10/06 11:04:14;;;;;;;6.32;1.27;;;15.20;99.90;;;;;;4950575;29;20318;-76
2021/10/06 11:06:47;;;;;;;1.83;0.82;;;14.80;99.90;;;;;;4950595;29;20102;-75
2021/10/06 11:09:31;;;;;;;4.00;1.00;;;14.20;99.90;;;;;;4952065;29;20078;-75
2021/10/06 11:12:06;;;;;;;3.55;0.90;;;13.50;99.90;;;;;;4941987;29;20020;-75
2021/10/06 11:14:33;;;;;;;1.52;1.00;;;13.10;99.90;;;;;;4954981;29;20070;-75
2021/10/06 11:17:06;;;;;;;4.30;1.15;;;12.70;99.90;;;;;;4956095;29;20353;-75
2021/10/06 11:19:50;;;;;;;3.42;1.00;;;12.40;99.90;;;;;;4955185;28;20511;-75
2021/10/06 11:22:24;;;;;;;2.63;1.00;;;12.30;99.90;;;;;;4952181;29;20059;-75
2021/10/06 11:24:53;;;;;;;1.85;0.88;;;12.30;99.90;;;;;;4950161;29;20101;-75
2021/10/06 11:27:20;;;;;;;4.40;1.00;;;12.40;99.90;;;;;;4950480;29;20039;-76
2021/10/06 11:29:49;;;;;;;3.92;1.00;;;12.60;99.90;;;;;;4950621;29;20357;-76
2021/10/06 11:32:15;;;;;;;4.38;1.25;;;12.70;99.90;;;;;;4950444;28;20118;-75
2021/10/06 11:34:50;;;;;;;2.10;1.20;;;12.70;99.90;;;;;;4950424;29;20447;-76
2021/10/06 11:37:28;;;;;;;2.27;1.03;;;12.80;99.90;;;;;;4933376;29;20860;-75
2021/10/06 11:39:54;;;;;;;5.13;1.05;;;12.90;99.90;;;;;;4942229;28;20279;-75
2021/10/06 11:42:29;;;;;;;4.75;1.10;;;13.20;99.90;;;;;;4948431;29;20034;-75
2021/10/06 11:44:55;;;;;;;3.40;1.08;;;13.50;99.90;;;;;;4950256;29;20053;-76
2021/10/06 11:47:21;;;;;;;4.05;1.02;;;14.00;99.90;;;;;;4950696;29;20476;-74
2021/10/06 11:49:51;;;;;;;3.60;0.90;;;14.20;99.90;;;;;;4957045;29;20015;-73
2021/10/06 11:52:18;;;;;;;4.88;1.08;;;14.40;99.90;;;;;;4956897;29;20307;-73
2021/10/06 11:54:48;;;;;;;2.88;0.98;;;14.50;99.90;;;;;;4956695;29;20102;-73
2021/10/06 11:57:14;;;;;;;3.17;1.10;;;14.80;99.90;;;;;;4956867;29;20413;-73
2021/10/06 11:59:44;;;;;;;6.40;1.83;;;14.90;99.90;;;;;;4956808;29;20118;-73
2021/10/06 12:02:12;;;;;;;5.55;1.13;;;15.10;99.90;;;;;;4956643;29;20053;-73
2021/10/06 12:04:38;;;;;;;4.50;1.10;;;15.10;99.90;;;;;;4939351;29;20023;-73
2021/10/06 12:07:15;;;;;;;3.08;0.88;;;15.20;99.90;;;;;;4956625;29;20082;-73
2021/10/06 12:09:55;;;;;;;3.65;1.35;;;15.00;99.90;;;;;;4956326;29;20032;-73
2021/10/06 12:12:23;;;;;;;3.33;1.27;;;15.00;99.90;;;;;;4956431;29;20107;-73
2021/10/06 12:15:05;;;;;;;4.65;1.27;;;15.00;99.90;;;;;;4956596;29;20094;-73
2021/10/06 12:17:30;;;;;;;5.18;0.80;;;15.00;99.90;;;;;;4955857;29;20396;-73
2021/10/06 12:20:12;;;;;;;2.08;1.05;;;14.80;99.90;;;;;;4956159;29;20070;-73
2021/10/06 12:22:39;;;;;;;2.15;0.65;;;14.50;99.90;;;;;;4956336;29;20028;-73
2021/10/06 12:25:07;;;;;;;4.93;1.00;;;14.40;99.90;;;;;;4939073;29;20031;-73
2021/10/06 12:27:36;;;;;;;3.20;1.00;;;14.60;99.90;;;;;;4956246;29;20112;-73
2021/10/06 12:30:07;;;;;;;2.45;0.80;;;14.70;99.90;;;;;;4956328;29;20457;-73
2021/10/06 12:32:33;;;;;;;3.03;0.90;;;14.80;99.90;;;;;;4955784;29;20082;-73
2021/10/06 12:35:07;;;;;;;3.33;1.08;;;15.00;99.90;;;;;;4954655;29;20448;-75
2021/10/06 12:37:33;;;;;;;1.92;1.00;;;15.30;99.90;;;;;;4939549;28;20035;-75
2021/10/06 12:39:59;;;;;;;3.70;1.00;;;15.50;99.90;;;;;;4954557;28;20507;-75
2021/10/06 12:42:24;;;;;;;2.78;0.95;;;15.60;99.90;;;;;;4948122;28;20100;-75
2021/10/06 12:44:50;;;;;;;5.07;1.45;;;15.70;99.90;;;;;;4948938;28;20578;-75
2021/10/06 12:47:21;;;;;;;2.60;0.98;;;15.80;99.90;;;;;;4948945;28;20030;-75
2021/10/06 12:49:55;;;;;;;2.95;0.93;;;15.80;99.90;;;;;;4949290;29;20050;-80